Time;durP1;ratioP1;P1;durP2;ratioP2;P2;SDS_P1;SDS_P2;PMS_P1;PMS_P2;Temp;Humidity;BMP_temperature;BMP_pressure;BME280_temperature;BME280_humidity;BME280_pressure;Samples;Min_cycle;Max_cycle;Signal;HPM_P1;HPM_P2
2023/11/18 00:04:50;;;;;;;41.22;13.95;;;2.70;1.00;;;;;;5071016;28;20185;-81
2023/11/18 00:11:21;;;;;;;27.92;12.52;;;2.60;1.00;;;;;;5056136;28;20187;-81
2023/11/18 00:13:50;;;;;;;28.65;12.90;;;2.60;2.60;;;;;;5066806;28;20295;-81
2023/11/18 00:16:20;;;;;;;25.48;12.35;;;2.60;2.30;;;;;;5070894;28;20182;-81
2023/11/18 00:19:37;;;;;;;28.15;11.75;;;2.60;2.90;;;;;;5089900;28;20192;-81
2023/11/18 00:22:03;;;;;;;26.73;11.95;;;2.50;1.20;;;;;;5070722;28;20273;-72
2023/11/18 00:24:29;;;;;;;27.77;12.70;;;;;;;;;;5076194;28;20266;-72
2023/11/18 00:27:08;;;;;;;37.95;12.15;;;2.40;2.50;;;;;;5075044;28;20424;-72
2023/11/18 00:29:34;;;;;;;32.85;12.75;;;2.30;1.50;;;;;;5089473;28;20232;-72
2023/11/18 00:32:08;;;;;;;32.92;13.30;;;2.30;5.20;;;;;;5072902;28;20185;-72
2023/11/18 00:34:34;;;;;;;33.60;13.35;;;;;;;;;;5079836;28;20206;-72
2023/11/18 00:40:22;;;;;;;33.83;14.10;;;2.70;11.50;;;;;;5068925;28;20222;-81
2023/11/18 00:46:09;;;;;;;30.27;12.90;;;2.70;6.60;;;;;;5064019;28;20201;-81
2023/11/18 00:55:38;;;;;;;25.85;12.95;;;;;;;;;;5057249;28;20257;-81
2023/11/18 01:04:47;;;;;;;22.67;11.75;;;2.50;5.00;;;;;;5081756;28;20189;-81
2023/11/18 01:07:13;;;;;;;30.33;12.40;;;;;;;;;;5081683;28;20261;-72
2023/11/18 01:09:39;;;;;;;36.35;15.10;;;2.80;10.80;;;;;;5077474;28;20514;-72
2023/11/18 01:12:05;;;;;;;31.63;12.60;;;2.90;10.60;;;;;;5096770;28;20254;-72
2023/11/18 01:14:32;;;;;;;29.52;12.60;;;3.00;9.30;;;;;;5082290;28;20233;-72
2023/11/18 01:16:57;;;;;;;26.13;12.75;;;3.00;8.90;;;;;;5080385;28;20244;-72
2023/11/18 01:19:23;;;;;;;25.40;12.70;;;3.00;8.70;;;;;;5078621;28;20183;-72
2023/11/18 01:25:26;;;;;;;25.27;12.55;;;3.00;4.50;;;;;;5084107;28;20428;-81
2023/11/18 01:34:38;;;;;;;27.65;12.82;;;2.80;1.00;;;;;;5076350;28;20255;-81
2023/11/18 01:37:07;;;;;;;35.53;13.48;;;2.70;1.00;;;;;;5085541;28;20565;-72
2023/11/18 01:39:38;;;;;;;30.23;12.63;;;2.70;1.00;;;;;;5075943;28;20536;-72
2023/11/18 01:42:04;;;;;;;28.65;13.00;;;;;;;;;;5076517;28;20253;-71
2023/11/18 01:44:30;;;;;;;25.65;12.00;;;2.60;1.00;;;;;;5089210;28;20268;-72
2023/11/18 01:47:03;;;;;;;31.92;12.85;;;2.60;1.00;;;;;;5074935;28;20178;-72
2023/11/18 01:49:29;;;;;;;25.02;11.77;;;;;;;;;;5080348;28;20257;-72
2023/11/18 01:51:56;;;;;;;25.67;12.60;;;;;;;;;;5079292;28;20607;-71
2023/11/18 01:54:39;;;;;;;24.50;12.48;;;2.60;1.00;;;;;;5079288;28;20206;-72
2023/11/18 01:57:09;;;;;;;27.70;11.95;;;2.60;1.00;;;;;;5076064;28;20265;-72
2023/11/18 01:59:37;;;;;;;24.58;12.48;;;2.60;1.00;;;;;;5082695;28;20219;-72
2023/11/18 02:02:04;;;;;;;27.75;12.50;;;2.60;1.00;;;;;;5075401;28;20167;-72
2023/11/18 02:04:30;;;;;;;28.83;13.57;;;;;;;;;;5074988;28;20191;-72
2023/11/18 02:07:09;;;;;;;28.55;11.60;;;2.60;2.70;;;;;;5075526;28;20266;-72
2023/11/18 02:09:35;;;;;;;27.50;11.10;;;2.60;2.00;;;;;;5082947;28;20190;-72
2023/11/18 02:12:26;;;;;;;26.90;12.52;;;2.60;3.20;;;;;;5075779;28;20625;-72
2023/11/18 02:14:55;;;;;;;29.10;13.50;;;2.60;5.40;;;;;;5083980;28;20293;-72
2023/11/18 02:17:28;;;;;;;26.95;11.75;;;2.80;6.00;;;;;;5081409;28;20547;-72
2023/11/18 02:20:15;;;;;;;25.25;12.80;;;2.90;5.40;;;;;;5078061;28;20198;-72
2023/11/18 02:26:05;;;;;;;29.35;13.13;;;;;;;;;;5077028;28;20154;-81
2023/11/18 02:29:25;;;;;;;24.43;11.77;;;3.00;1.00;;;;;;5077536;28;20167;-81
2023/11/18 02:35:41;;;;;;;22.30;11.05;;;2.80;1.00;;;;;;5079327;28;20287;-81
2023/11/18 02:38:10;;;;;;;28.25;11.05;;;2.80;1.00;;;;;;5073128;28;20305;-72
2023/11/18 02:40:43;;;;;;;28.83;11.52;;;2.80;1.00;;;;;;5076079;28;20316;-72
2023/11/18 02:43:10;;;;;;;30.45;11.18;;;2.80;1.00;;;;;;5074687;28;20268;-72
2023/11/18 02:45:37;;;;;;;23.88;10.65;;;2.70;1.00;;;;;;5091230;28;20269;-72
2023/11/18 02:48:06;;;;;;;28.00;10.18;;;2.60;1.00;;;;;;5082379;28;20174;-72
2023/11/18 02:50:32;;;;;;;26.42;10.48;;;;;;;;;;5072575;28;20191;-72
2023/11/18 02:53:33;;;;;;;19.95;10.57;;;2.50;1.00;;;;;;5074993;28;20198;-81
2023/11/18 02:56:18;;;;;;;26.63;12.48;;;2.40;1.00;;;;;;5056500;28;20199;-81
2023/11/18 02:58:44;;;;;;;28.58;11.88;;;2.30;1.00;;;;;;5074757;28;20614;-81
2023/11/18 03:04:32;;;;;;;25.20;10.93;;;2.20;1.00;;;;;;5088589;28;20181;-81
2023/11/18 03:07:14;;;;;;;30.77;12.40;;;;;;;;;;5073653;28;20167;-81
2023/11/18 03:09:40;;;;;;;33.30;12.60;;;2.20;1.00;;;;;;5069815;28;20179;-72
2023/11/18 03:12:08;;;;;;;22.07;12.23;;;;;;;;;;5074143;28;20267;-71
2023/11/18 03:14:38;;;;;;;26.08;11.75;;;2.10;1.00;;;;;;5074247;28;20205;-72
2023/11/18 03:17:06;;;;;;;22.88;12.27;;;;;;;;;;5078124;28;20254;-72
2023/11/18 03:19:34;;;;;;;24.02;12.20;;;2.10;1.00;;;;;;5083832;28;20182;-72
2023/11/18 03:22:02;;;;;;;36.83;12.27;;;2.10;1.00;;;;;;5086385;28;20266;-72
2023/11/18 03:24:29;;;;;;;44.72;14.25;;;2.10;1.00;;;;;;5080836;28;20664;-72
2023/11/18 03:26:55;;;;;;;38.28;13.10;;;2.20;2.60;;;;;;5072183;28;20218;-72
2023/11/18 03:29:21;;;;;;;32.78;13.50;;;;;;;;;;5086944;28;20653;-72
2023/11/18 03:31:48;;;;;;;41.00;14.45;;;;;;;;;;5065380;28;20225;-72
2023/11/18 03:34:20;;;;;;;29.52;14.07;;;2.30;8.60;;;;;;5070262;28;20202;-72
2023/11/18 03:36:47;;;;;;;48.65;16.15;;;2.50;9.60;;;;;;5072337;28;20541;-72
2023/11/18 03:39:14;;;;;;;30.48;12.90;;;2.50;9.80;;;;;;5073501;28;20187;-81
2023/11/18 03:45:02;;;;;;;27.25;12.68;;;2.60;9.80;;;;;;5077997;28;20173;-81
2023/11/18 03:50:50;;;;;;;35.70;13.70;;;2.70;12.30;;;;;;5067122;28;20428;-81
2023/11/18 03:54:02;;;;;;;36.10;15.48;;;2.70;13.90;;;;;;5074163;28;20690;-81
2023/11/18 03:56:49;;;;;;;44.78;15.77;;;2.80;17.10;;;;;;5074474;28;20189;-81
2023/11/18 03:59:43;;;;;;;31.63;13.85;;;3.00;16.70;;;;;;5082983;28;20190;-81
2023/11/18 04:02:49;;;;;;;35.83;13.80;;;3.00;16.10;;;;;;5059467;28;20552;-81
2023/11/18 04:05:26;;;;;;;36.38;14.10;;;3.10;16.30;;;;;;5075582;28;20640;-80
2023/11/18 04:08:41;;;;;;;72.68;14.35;;;3.20;15.20;;;;;;5073953;28;20189;-81
2023/11/18 04:11:06;;;;;;;46.90;13.88;;;3.30;16.30;;;;;;5078248;28;20212;-81
2023/11/18 04:16:55;;;;;;;116.82;12.48;;;3.50;6.90;;;;;;5083492;28;20235;-81
2023/11/18 04:19:38;;;;;;;84.77;12.17;;;3.60;5.70;;;;;;5056584;28;20201;-81
2023/11/18 04:22:49;;;;;;;110.47;12.50;;;3.70;3.90;;;;;;5076597;28;20550;-81
2023/11/18 04:25:15;;;;;;;137.67;13.50;;;3.70;2.40;;;;;;5062470;28;20193;-72
2023/11/18 04:27:41;;;;;;;133.30;13.83;;;;;;;;;;5073634;28;20904;-72
2023/11/18 04:30:08;;;;;;;112.28;12.30;;;;;;;;;;5080574;28;20186;-72
2023/11/18 04:32:34;;;;;;;49.07;11.57;;;3.80;1.00;;;;;;5073214;28;20182;-72
2023/11/18 04:35:06;;;;;;;74.20;12.70;;;;;;;;;;5073049;28;20453;-72
2023/11/18 04:37:34;;;;;;;55.63;11.47;;;;;;;;;;5072965;28;20401;-72
2023/11/18 04:40:00;;;;;;;69.63;12.47;;;4.00;1.00;;;;;;5077520;28;20499;-81
2023/11/18 04:42:44;;;;;;;68.67;12.97;;;4.00;1.90;;;;;;5084700;28;20505;-81
2023/11/18 04:45:09;;;;;;;51.97;12.30;;;4.10;1.00;;;;;;5080328;28;20479;-81
2023/11/18 04:47:37;;;;;;;29.43;12.37;;;4.10;1.00;;;;;;5078384;28;20452;-81
2023/11/18 04:50:04;;;;;;;82.00;12.63;;;;;;;;;;5083801;28;20658;-81
2023/11/18 04:53:13;;;;;;;36.13;11.50;;;4.20;1.00;;;;;;5073083;28;21008;-81
2023/11/18 04:55:39;;;;;;;96.73;13.77;;;4.20;1.00;;;;;;5079362;28;20471;-72
2023/11/18 04:58:09;;;;;;;26.63;12.23;;;4.20;1.00;;;;;;5072859;28;20451;-72
2023/11/18 05:00:38;;;;;;;31.00;11.67;;;4.20;1.50;;;;;;5068058;28;20937;-72
2023/11/18 05:03:12;;;;;;;27.13;11.17;;;4.30;1.00;;;;;;5068858;28;20472;-72
2023/11/18 05:05:39;;;;;;;42.83;11.53;;;4.30;1.00;;;;;;5085104;28;20885;-72
2023/11/18 05:08:09;;;;;;;60.70;11.60;;;;;;;;;;5066924;28;20908;-72
2023/11/18 05:14:43;;;;;;;31.93;11.23;;;4.30;1.00;;;;;;5073514;28;20772;-81
2023/11/18 05:17:43;;;;;;;49.20;12.13;;;4.40;1.00;;;;;;5073122;28;20412;-81
2023/11/18 05:20:44;;;;;;;74.53;11.20;;;4.40;1.00;;;;;;5067720;28;20421;-81
2023/11/18 05:23:33;;;;;;;35.23;10.93;;;4.30;1.00;;;;;;5076791;28;20428;-81
2023/11/18 05:25:59;;;;;;;29.15;9.65;;;;;;;;;;5064299;28;20439;-72
2023/11/18 05:28:25;;;;;;;36.93;10.80;;;4.30;1.00;;;;;;5088432;28;20267;-72
2023/11/18 05:30:52;;;;;;;22.10;9.80;;;4.30;1.00;;;;;;5075348;28;20452;-72
2023/11/18 05:33:20;;;;;;;29.47;10.67;;;4.30;1.00;;;;;;5075088;28;20217;-72
2023/11/18 05:35:49;;;;;;;56.93;11.20;;;4.30;1.00;;;;;;5090024;28;20448;-72
2023/11/18 05:38:21;;;;;;;37.57;11.33;;;4.40;1.00;;;;;;5084301;28;20420;-72
2023/11/18 05:44:17;;;;;;;63.80;10.63;;;;;;;;;;5078888;28;20459;-80
2023/11/18 05:46:58;;;;;;;71.77;12.43;;;4.50;1.00;;;;;;5066469;28;20859;-81
2023/11/18 05:49:43;;;;;;;35.10;10.47;;;4.50;1.00;;;;;;5073788;28;20521;-81
2023/11/18 05:52:43;;;;;;;27.70;10.53;;;4.50;1.00;;;;;;5076183;28;20435;-81
2023/11/18 05:55:43;;;;;;;41.87;10.63;;;4.50;1.00;;;;;;5081859;28;20519;-81
2023/11/18 06:02:17;;;;;;;27.17;9.77;;;4.50;1.00;;;;;;5071086;28;20903;-82
2023/11/18 06:05:14;;;;;;;54.07;9.37;;;4.50;1.00;;;;;;5077654;28;20792;-82
2023/11/18 06:08:13;;;;;;;42.93;10.30;;;;;;;;;;5088058;28;20480;-82
2023/11/18 06:11:14;;;;;;;44.80;9.83;;;4.50;1.00;;;;;;5073911;28;20440;-85
2023/11/18 06:14:13;;;;;;;67.67;10.17;;;4.50;1.00;;;;;;5087306;28;20438;-86
2023/11/18 06:16:44;;;;;;;33.30;9.20;;;;;;;;;;5093838;28;20532;-85
2023/11/18 06:19:43;;;;;;;30.77;9.13;;;4.50;1.00;;;;;;5082720;28;20465;-85
2023/11/18 06:22:43;;;;;;;45.50;10.73;;;4.50;1.00;;;;;;5081296;28;20472;-86
2023/11/18 06:25:16;;;;;;;42.20;10.33;;;;;;;;;;5071401;28;20441;-82
2023/11/18 06:28:15;;;;;;;59.00;10.00;;;4.50;1.00;;;;;;5065548;28;20426;-82
2023/11/18 06:30:56;;;;;;;72.63;10.40;;;;;;;;;;5072820;28;20441;-83
2023/11/18 06:33:45;;;;;;;75.40;10.60;;;4.60;1.00;;;;;;5090973;28;20425;-82
2023/11/18 06:36:37;;;;;;;68.10;10.23;;;4.60;1.00;;;;;;5073556;28;20465;-83
2023/11/18 06:43:13;;;;;;;72.87;9.60;;;4.60;1.00;;;;;;5083324;28;20891;-82
2023/11/18 06:49:43;;;;;;;90.47;9.23;;;4.80;1.00;;;;;;5073225;28;20478;-82
2023/11/18 06:55:31;;;;;;;27.13;8.23;;;;;;;;;;5083085;28;20950;-82
2023/11/18 06:58:09;;;;;;;41.47;8.67;;;;;;;;;;5090835;28;20441;-82
2023/11/18 07:01:14;;;;;;;24.47;8.40;;;4.90;1.00;;;;;;5073098;28;20440;-83
2023/11/18 07:03:48;;;;;;;20.17;8.27;;;5.00;1.00;;;;;;5091990;28;20436;-82
2023/11/18 07:06:32;;;;;;;33.20;8.57;;;;;;;;;;5078157;28;20439;-84
2023/11/18 07:12:26;;;;;;;34.40;8.97;;;5.00;1.00;;;;;;5068491;28;20433;-79
2023/11/18 07:15:14;;;;;;;35.30;8.70;;;5.10;1.00;;;;;;5089774;28;20813;-79
2023/11/18 07:18:13;;;;;;;20.23;8.83;;;5.10;1.00;;;;;;5054629;28;20429;-79
2023/11/18 07:20:45;;;;;;;24.40;8.70;;;;;;;;;;5065589;28;20424;-82
2023/11/18 07:23:43;;;;;;;25.73;8.90;;;5.20;1.00;;;;;;5080526;28;20434;-81
2023/11/18 07:26:10;;;;;;;28.03;8.13;;;;;;;;;;5076338;28;20427;-72
2023/11/18 07:28:36;;;;;;;28.53;9.30;;;5.20;1.00;;;;;;5074694;28;20406;-72
2023/11/18 07:31:04;;;;;;;21.30;9.07;;;5.30;1.00;;;;;;5073905;28;20894;-72
2023/11/18 07:33:32;;;;;;;41.57;8.77;;;5.40;1.00;;;;;;5084509;28;20845;-72
2023/11/18 07:36:15;;;;;;;17.93;8.00;;;5.40;1.00;;;;;;5075279;28;20457;-76
2023/11/18 07:38:44;;;;;;;13.97;7.27;;;5.50;1.00;;;;;;5073909;28;20460;-75
2023/11/18 07:41:23;;;;;;;19.27;7.83;;;5.50;1.00;;;;;;5073927;28;20421;-81
2023/11/18 07:44:43;;;;;;;34.27;8.00;;;5.50;1.00;;;;;;5070001;28;20418;-80
2023/11/18 07:47:44;;;;;;;17.80;7.70;;;5.60;1.00;;;;;;5065732;28;20434;-81
2023/11/18 07:50:14;;;;;;;23.77;8.60;;;;;;;;;;5086986;28;20536;-81
2023/11/18 07:53:13;;;;;;;24.20;8.37;;;5.70;1.00;;;;;;5077763;28;20449;-85
2023/11/18 07:55:39;;;;;;;31.07;9.23;;;5.70;1.00;;;;;;5089519;28;20547;-86
2023/11/18 07:58:14;;;;;;;34.40;9.30;;;;;;;;;;5076647;28;20528;-86
2023/11/18 08:00:49;;;;;;;45.10;9.30;;;;;;;;;;5083875;28;20432;-85
2023/11/18 08:03:14;;;;;;;23.97;8.47;;;5.90;1.00;;;;;;5070756;28;20424;-84
2023/11/18 08:05:57;;;;;;;24.27;7.90;;;;;;;;;;5089243;28;20474;-86
2023/11/18 08:09:14;;;;;;;31.20;7.90;;;6.00;1.00;;;;;;5072711;28;20175;-86
2023/11/18 08:11:45;;;;;;;40.50;9.70;;;;;;;;;;5071819;28;20440;-83
2023/11/18 08:14:43;;;;;;;27.77;9.00;;;6.00;1.00;;;;;;5079598;28;20418;-83
2023/11/18 08:17:43;;;;;;;30.87;8.27;;;6.10;1.00;;;;;;5053784;28;20421;-81
2023/11/18 08:20:24;;;;;;;28.77;8.93;;;;;;;;;;5084143;28;20428;-78
2023/11/18 08:23:13;;;;;;;37.13;9.83;;;6.20;1.00;;;;;;5080565;28;20436;-76
2023/11/18 08:25:46;;;;;;;26.63;9.47;;;;;;;;;;5068892;28;20790;-82
2023/11/18 08:28:45;;;;;;;28.63;9.03;;;6.20;1.00;;;;;;5055311;28;20476;-74
2023/11/18 08:31:26;;;;;;;26.83;8.80;;;6.30;1.00;;;;;;5058159;28;20775;-77
2023/11/18 08:34:14;;;;;;;25.80;10.40;;;6.40;1.00;;;;;;5076186;28;20433;-77
2023/11/18 08:37:09;;;;;;;26.70;9.97;;;6.50;1.00;;;;;;5073428;28;20772;-75
2023/11/18 08:39:44;;;;;;;26.10;10.07;;;;;;;;;;5071074;28;20471;-78
2023/11/18 08:42:10;;;;;;;22.80;8.23;;;6.70;1.00;;;;;;5067763;28;20432;-71
2023/11/18 08:44:38;;;;;;;28.97;8.40;;;6.70;1.00;;;;;;5067433;28;20433;-70
2023/11/18 08:47:08;;;;;;;17.60;8.40;;;6.80;1.00;;;;;;5085544;28;20183;-71
2023/11/18 08:49:46;;;;;;;27.93;8.90;;;6.90;1.00;;;;;;5071107;28;20427;-72
2023/11/18 08:52:12;;;;;;;23.60;9.80;;;6.90;1.00;;;;;;5073277;28;20455;-71
2023/11/18 08:55:12;;;;;;;23.00;8.93;;;7.00;1.00;;;;;;5086209;28;20871;-71
2023/11/18 08:57:25;;;;;;;30.50;8.40;;;7.10;1.00;;;;;;5071888;28;20441;-71
2023/11/18 08:59:51;;;;;;;23.00;7.90;;;7.20;1.00;;;;;;5059608;28;20511;-70
2023/11/18 09:02:23;;;;;;;28.13;9.47;;;;;;;;;;5088781;28;20885;-70
2023/11/18 09:04:52;;;;;;;22.83;8.57;;;7.30;1.00;;;;;;5073347;28;20435;-70
2023/11/18 09:07:19;;;;;;;22.63;7.97;;;7.40;1.00;;;;;;5077463;28;20441;-71
2023/11/18 09:09:45;;;;;;;23.60;9.27;;;;;;;;;;5083925;28;20520;-70
2023/11/18 09:12:14;;;;;;;22.50;8.30;;;7.50;1.00;;;;;;5078031;28;20440;-71
2023/11/18 09:14:42;;;;;;;27.10;8.60;;;7.60;1.00;;;;;;5078340;28;20556;-71
2023/11/18 09:17:09;;;;;;;24.47;8.83;;;7.70;1.00;;;;;;5076347;28;20440;-70
2023/11/18 09:19:35;;;;;;;25.73;9.23;;;;;;;;;;5070932;28;20527;-71
2023/11/18 09:22:01;;;;;;;50.10;11.50;;;;;;;;;;5075491;28;20458;-70
2023/11/18 09:24:27;;;;;;;77.30;13.93;;;;;;;;;;5058131;28;21881;-70
2023/11/18 09:26:54;;;;;;;40.53;9.17;;;8.10;1.00;;;;;;5077177;28;20907;-70
2023/11/18 09:29:23;;;;;;;19.07;9.10;;;8.20;1.00;;;;;;5073766;28;20530;-70
2023/11/18 09:31:49;;;;;;;18.83;8.30;;;;;;;;;;5065580;28;20559;-70
2023/11/18 09:34:17;;;;;;;30.77;10.40;;;;;;;;;;5075046;28;20508;-70
2023/11/18 09:36:43;;;;;;;28.47;9.70;;;8.50;1.00;;;;;;5074929;28;20457;-70
2023/11/18 09:39:29;;;;;;;46.37;12.30;;;;;;;;;;5066393;28;20432;-70
2023/11/18 09:41:58;;;;;;;38.33;11.20;;;8.70;1.00;;;;;;5068892;28;20424;-70
2023/11/18 09:44:27;;;;;;;22.37;9.30;;;8.70;1.00;;;;;;5073098;28;20452;-70
2023/11/18 09:47:04;;;;;;;19.30;9.07;;;8.80;1.00;;;;;;5075054;28;20828;-70
2023/11/18 09:49:38;;;;;;;24.47;10.43;;;8.90;1.00;;;;;;5073550;28;20448;-70
2023/11/18 09:52:06;;;;;;;28.27;10.90;;;;;;;;;;5073587;28;20447;-70
2023/11/18 09:55:02;;;;;;;23.43;9.53;;;8.90;1.00;;;;;;5072565;28;20539;-70
2023/11/18 09:57:43;;;;;;;26.47;11.27;;;8.90;1.00;;;;;;5080738;28;20453;-69
2023/11/18 10:00:20;;;;;;;28.30;11.10;;;8.90;1.00;;;;;;5067499;28;20436;-70
2023/11/18 10:02:50;;;;;;;24.50;11.13;;;8.90;1.00;;;;;;5080998;28;20431;-70
2023/11/18 10:05:20;;;;;;;29.23;12.57;;;8.80;1.00;;;;;;5092098;28;20515;-70
2023/11/18 10:07:49;;;;;;;29.40;11.43;;;;;;;;;;5073037;28;20443;-70
2023/11/18 10:10:16;;;;;;;31.33;11.63;;;8.80;1.00;;;;;;5076043;28;20420;-70
2023/11/18 10:12:59;;;;;;;25.17;11.93;;;8.80;1.00;;;;;;5080635;28;20435;-78
2023/11/18 10:24:57;;;;;;;41.63;11.70;;;8.40;1.00;;;;;;5071824;28;20782;-77
2023/11/18 10:27:28;;;;;;;29.33;12.00;;;8.30;1.00;;;;;;5072819;28;20790;-70
2023/11/18 10:30:04;;;;;;;35.00;12.13;;;8.40;1.00;;;;;;5070777;28;20441;-70
2023/11/18 10:32:35;;;;;;;26.63;12.07;;;8.50;1.00;;;;;;5071416;28;20490;-72
2023/11/18 10:35:05;;;;;;;32.23;12.37;;;8.60;1.00;;;;;;5073053;28;20465;-72
2023/11/18 10:37:31;;;;;;;40.13;13.27;;;8.50;1.00;;;;;;5073022;28;20421;-72
2023/11/18 10:39:57;;;;;;;31.73;11.87;;;8.50;1.00;;;;;;5073151;28;20445;-72
2023/11/18 10:42:30;;;;;;;42.00;13.07;;;8.50;1.00;;;;;;5063998;28;20793;-80
2023/11/18 10:45:24;;;;;;;23.67;11.27;;;;;;;;;;5080258;28;20520;-79
2023/11/18 10:48:43;;;;;;;28.10;11.90;;;8.60;1.00;;;;;;5074825;28;20436;-81
2023/11/18 10:54:56;;;;;;;30.57;9.63;;;8.70;1.00;;;;;;5072996;28;20471;-81
2023/11/18 10:57:25;;;;;;;23.10;10.17;;;8.90;1.00;;;;;;5067044;28;20434;-72
2023/11/18 11:00:03;;;;;;;26.87;10.50;;;9.00;1.00;;;;;;5074977;28;20429;-72
2023/11/18 11:02:38;;;;;;;23.13;10.80;;;;;;;;;;5066847;28;20436;-72
2023/11/18 11:05:04;;;;;;;25.30;10.87;;;9.10;1.00;;;;;;5073865;28;20489;-72
2023/11/18 11:07:36;;;;;;;19.77;9.60;;;;;;;;;;5072797;28;20429;-72
2023/11/18 11:10:04;;;;;;;24.43;10.53;;;9.20;1.00;;;;;;5076469;28;20532;-72
2023/11/18 11:12:38;;;;;;;21.63;9.60;;;9.20;1.00;;;;;;5074687;28;20417;-73
2023/11/18 11:15:13;;;;;;;31.50;11.30;;;9.20;1.00;;;;;;5072082;28;20457;-72
2023/11/18 11:17:45;;;;;;;22.33;10.07;;;9.30;1.00;;;;;;5069271;28;20428;-72
2023/11/18 11:20:23;;;;;;;20.10;9.30;;;9.30;1.00;;;;;;5057235;28;20410;-72
2023/11/18 11:23:10;;;;;;;22.13;9.50;;;9.40;1.00;;;;;;5068927;28;20412;-72
2023/11/18 11:26:08;;;;;;;18.90;9.30;;;9.50;1.00;;;;;;5075881;28;20433;-72
2023/11/18 11:32:20;;;;;;;15.20;8.10;;;9.50;1.00;;;;;;5051200;28;20789;-81
2023/11/18 11:35:05;;;;;;;16.67;8.90;;;9.30;1.00;;;;;;5039110;28;20474;-81
2023/11/18 11:37:45;;;;;;;20.90;8.10;;;9.30;1.00;;;;;;5065965;28;20433;-81
2023/11/18 11:40:21;;;;;;;14.60;7.47;;;9.30;1.00;;;;;;5059647;28;20475;-81
2023/11/18 11:43:21;;;;;;;23.73;8.80;;;9.40;1.00;;;;;;5051670;28;20939;-73
2023/11/18 11:45:56;;;;;;;16.60;7.70;;;9.40;1.00;;;;;;5050805;28;20441;-72
2023/11/18 11:48:27;;;;;;;30.10;8.87;;;9.50;1.00;;;;;;5052361;28;20433;-73
2023/11/18 11:51:01;;;;;;;24.43;8.50;;;9.50;1.00;;;;;;5050938;28;20456;-72
2023/11/18 11:53:45;;;;;;;14.77;8.33;;;9.50;1.00;;;;;;5048203;28;20450;-72
2023/11/18 11:56:14;;;;;;;18.60;7.50;;;9.60;1.00;;;;;;5051521;28;21004;-72
2023/11/18 11:58:44;;;;;;;33.00;8.93;;;9.60;1.00;;;;;;5049784;28;20453;-72
2023/11/18 12:01:23;;;;;;;22.33;8.23;;;9.60;1.00;;;;;;5051123;28;20800;-72
2023/11/18 12:03:57;;;;;;;15.57;7.97;;;9.70;1.00;;;;;;5050114;28;20434;-72
2023/11/18 12:06:26;;;;;;;18.00;7.27;;;9.80;1.00;;;;;;5070526;28;20428;-73
2023/11/18 12:08:56;;;;;;;16.70;7.80;;;9.90;1.00;;;;;;5079960;28;20485;-72
2023/11/18 12:11:32;;;;;;;17.70;8.10;;;9.90;1.00;;;;;;5075795;28;20429;-72
2023/11/18 12:14:32;;;;;;;17.00;7.90;;;10.00;1.00;;;;;;5071214;28;20460;-73
2023/11/18 12:17:20;;;;;;;18.83;8.60;;;9.90;1.00;;;;;;5061622;28;20435;-73
2023/11/18 12:19:58;;;;;;;16.50;8.23;;;9.50;1.00;;;;;;5073064;28;20428;-73
2023/11/18 12:22:33;;;;;;;19.47;8.60;;;9.50;1.00;;;;;;5064279;28;21239;-73
2023/11/18 12:25:05;;;;;;;25.60;9.37;;;9.60;1.00;;;;;;5072404;28;20462;-73
2023/11/18 12:27:53;;;;;;;14.23;7.83;;;9.60;1.00;;;;;;5078846;28;20966;-73
2023/11/18 12:30:22;;;;;;;20.87;8.67;;;9.70;1.00;;;;;;5071098;28;20481;-73
2023/11/18 12:33:05;;;;;;;17.00;8.17;;;9.70;1.00;;;;;;5078984;28;20481;-73
2023/11/18 12:35:44;;;;;;;22.30;9.27;;;;;;;;;;5091521;28;20460;-73
2023/11/18 12:38:29;;;;;;;13.70;7.93;;;9.70;1.00;;;;;;5073069;28;20433;-73
2023/11/18 12:40:56;;;;;;;18.13;8.37;;;9.80;1.00;;;;;;5087120;28;20734;-73
2023/11/18 12:47:21;;;;;;;15.23;7.77;;;9.40;1.00;;;;;;5069872;28;20779;-81
2023/11/18 12:53:32;;;;;;;15.13;6.97;;;9.40;1.00;;;;;;5065065;28;20778;-81
2023/11/18 12:56:18;;;;;;;14.63;7.60;;;9.40;1.00;;;;;;5084612;28;20452;-81
2023/11/18 12:58:47;;;;;;;12.97;7.03;;;9.40;1.00;;;;;;5077299;28;20452;-74
2023/11/18 13:01:14;;;;;;;16.03;7.23;;;;;;;;;;5073745;28;20416;-73
2023/11/18 13:03:45;;;;;;;18.73;7.40;;;;;;;;;;5073372;28;20860;-73
2023/11/18 13:06:15;;;;;;;24.23;8.50;;;;;;;;;;5075871;28;20763;-73
2023/11/18 13:08:41;;;;;;;10.40;7.03;;;9.30;1.00;;;;;;5077045;28;20446;-73
2023/11/18 13:11:15;;;;;;;14.30;7.07;;;;;;;;;;5076073;28;20429;-73
2023/11/18 13:17:08;;;;;;;11.77;6.83;;;9.40;1.00;;;;;;5087659;28;20431;-81
2023/11/18 13:23:08;;;;;;;13.20;6.83;;;;;;;;;;5063514;28;20388;-82
2023/11/18 13:26:13;;;;;;;13.67;7.00;;;9.40;1.00;;;;;;5074633;28;20766;-81
2023/11/18 13:28:40;;;;;;;22.20;7.73;;;;;;;;;;5066932;28;20425;-73
2023/11/18 13:31:16;;;;;;;15.37;6.97;;;9.50;1.00;;;;;;5073450;28;20425;-81
2023/11/18 13:33:51;;;;;;;18.90;7.43;;;9.60;1.00;;;;;;5074962;28;20878;-81
2023/11/18 13:36:17;;;;;;;14.23;7.73;;;9.50;1.00;;;;;;5075669;28;20471;-81
2023/11/18 13:38:44;;;;;;;12.33;6.53;;;;;;;;;;5074967;28;20425;-71
2023/11/18 13:41:38;;;;;;;11.30;6.27;;;9.50;1.00;;;;;;5075297;28;20439;-81
2023/11/18 13:47:27;;;;;;;19.63;6.97;;;;;;;;;;5075280;28;20966;-77
2023/11/18 13:50:31;;;;;;;20.90;7.70;;;9.40;1.00;;;;;;5083898;28;20448;-77
2023/11/18 13:53:05;;;;;;;83.20;14.43;;;;;;;;;;5055577;28;20540;-73
2023/11/18 13:55:33;;;;;;;13.90;6.43;;;;;;;;;;5068978;28;20462;-75
2023/11/18 13:58:10;;;;;;;12.77;6.17;;;9.30;1.00;;;;;;5073238;28;21006;-74
2023/11/18 14:00:36;;;;;;;12.73;6.23;;;9.30;1.00;;;;;;5075778;28;20523;-75
2023/11/18 14:03:04;;;;;;;23.43;7.43;;;9.40;1.00;;;;;;5069614;28;20505;-75
2023/11/18 14:05:35;;;;;;;10.40;5.90;;;9.30;1.00;;;;;;5086089;28;20499;-76
2023/11/18 14:08:17;;;;;;;12.80;6.40;;;;;;;;;;5078404;28;20964;-75
2023/11/18 14:10:45;;;;;;;12.50;6.80;;;;;;;;;;5075501;28;20451;-75
2023/11/18 14:13:16;;;;;;;12.73;7.30;;;9.40;1.00;;;;;;5071844;28;20952;-74
2023/11/18 14:15:45;;;;;;;18.67;6.73;;;;;;;;;;5082930;28;20497;-74
2023/11/18 14:18:14;;;;;;;11.27;7.00;;;9.40;1.00;;;;;;5089843;28;20740;-74
2023/11/18 14:20:41;;;;;;;15.13;7.73;;;;;;;;;;5076339;28;20425;-74
2023/11/18 14:23:08;;;;;;;14.50;7.43;;;;;;;;;;5075812;28;20952;-74
2023/11/18 14:25:34;;;;;;;14.73;7.33;;;9.30;1.00;;;;;;5072719;28;20426;-75
2023/11/18 14:28:02;;;;;;;15.93;7.30;;;9.30;1.00;;;;;;5067633;28;21015;-74
2023/11/18 14:30:50;;;;;;;21.00;8.70;;;9.30;1.00;;;;;;5068199;28;20478;-74
2023/11/18 14:33:15;;;;;;;11.00;6.57;;;9.10;1.00;;;;;;5068239;28;20409;-74
2023/11/18 14:35:44;;;;;;;16.30;7.30;;;;;;;;;;5074209;28;20457;-74
2023/11/18 14:38:12;;;;;;;23.13;7.63;;;8.80;1.00;;;;;;5074923;28;20359;-74
2023/11/18 14:40:40;;;;;;;16.67;7.13;;;;;;;;;;5074106;28;20425;-74
2023/11/18 14:43:07;;;;;;;13.90;6.70;;;;;;;;;;5069661;28;20414;-74
2023/11/18 14:46:03;;;;;;;9.60;6.13;;;9.00;1.00;;;;;;5071577;28;20425;-80
2023/11/18 14:48:45;;;;;;;10.80;6.47;;;9.00;1.00;;;;;;5074911;28;20401;-79
2023/11/18 14:54:35;;;;;;;16.13;6.50;;;;;;;;;;5065361;28;20801;-80
2023/11/18 15:00:34;;;;;;;16.13;6.47;;;8.80;1.00;;;;;;5072549;28;20397;-74
2023/11/18 15:03:00;;;;;;;15.47;5.77;;;;;;;;;;5057923;28;20447;-74
2023/11/18 15:05:27;;;;;;;17.90;7.30;;;8.80;1.00;;;;;;5070926;28;20414;-74
2023/11/18 15:07:56;;;;;;;20.83;5.63;;;8.90;1.00;;;;;;5073307;28;20425;-74
2023/11/18 15:10:23;;;;;;;15.90;5.40;;;8.90;1.00;;;;;;5067607;28;20462;-74
2023/11/18 15:13:03;;;;;;;18.77;6.07;;;;;;;;;;5072268;28;20520;-74
2023/11/18 15:25:34;;;;;;;13.37;4.60;;;8.70;1.00;;;;;;5071275;28;20388;-80
2023/11/18 15:31:24;;;;;;;11.13;4.07;;;8.60;1.00;;;;;;5075941;28;20552;-82
2023/11/18 15:34:08;;;;;;;6.53;3.90;;;8.60;1.00;;;;;;5074251;28;20415;-83
2023/11/18 15:39:56;;;;;;;5.70;3.50;;;8.40;1.00;;;;;;5079388;28;20435;-82
2023/11/18 15:45:47;;;;;;;7.40;3.90;;;;;;;;;;5074096;28;20241;-74
2023/11/18 15:48:14;;;;;;;5.80;3.37;;;8.40;1.00;;;;;;5073810;28;20417;-74
2023/11/18 15:50:40;;;;;;;5.37;3.13;;;;;;;;;;5073802;28;20429;-74
2023/11/18 15:53:06;;;;;;;6.10;2.80;;;8.40;1.00;;;;;;5085310;28;20412;-74
2023/11/18 15:55:32;;;;;;;4.77;2.80;;;8.40;1.00;;;;;;5083576;28;20984;-74
2023/11/18 15:57:58;;;;;;;5.07;2.73;;;8.30;1.00;;;;;;5063973;28;20258;-74
2023/11/18 16:00:25;;;;;;;5.30;3.07;;;8.30;1.00;;;;;;5072526;28;20512;-74
2023/11/18 16:02:53;;;;;;;6.47;3.63;;;8.30;1.00;;;;;;5075665;28;20708;-74
2023/11/18 16:05:28;;;;;;;8.77;3.33;;;8.30;1.00;;;;;;5083491;28;20428;-74
2023/11/18 16:07:56;;;;;;;4.50;2.77;;;8.30;1.00;;;;;;5082130;28;20892;-74
2023/11/18 16:10:23;;;;;;;5.13;3.33;;;8.30;1.00;;;;;;5080548;28;20457;-74
2023/11/18 16:12:52;;;;;;;7.90;2.77;;;8.30;1.00;;;;;;5080666;28;20432;-74
2023/11/18 16:15:27;;;;;;;8.30;2.90;;;;;;;;;;5078317;28;20482;-82
2023/11/18 16:21:17;;;;;;;2.47;2.27;;;;;;;;;;5063169;28;20420;-82
2023/11/18 16:24:14;;;;;;;3.33;2.53;;;8.20;1.00;;;;;;5085630;28;20456;-82
2023/11/18 16:27:32;;;;;;;3.33;2.03;;;8.20;1.00;;;;;;5079780;28;20440;-83